Time;durP1;ratioP1;P1;durP2;ratioP2;P2;SDS_P1;SDS_P2;PMS_P1;PMS_P2;Temp;Humidity;BMP_temperature;BMP_pressure;BME280_temperature;BME280_humidity;BME280_pressure;Samples;Min_cycle;Max_cycle;Signal;HPM_P1;HPM_P2
2020/12/07 00:01:33;;;;;;;10.20;6.72;;;;;;;7.78;72.93;99447.91;5135394;28;20042;-62
2020/12/07 00:03:59;;;;;;;10.77;7.57;;;;;;;7.78;73.11;99453.50;5135451;28;20064;-62
2020/12/07 00:06:24;;;;;;;12.35;7.25;;;;;;;7.77;72.97;99455.50;5135033;28;20031;-61
2020/12/07 00:08:49;;;;;;;10.68;6.80;;;;;;;7.80;72.72;99465.06;5135721;28;20477;-61
2020/12/07 00:11:15;;;;;;;12.38;7.00;;;;;;;7.82;72.82;99452.28;5135148;28;20116;-61
2020/12/07 00:13:40;;;;;;;13.80;7.55;;;;;;;7.81;72.60;99459.06;5135018;28;20043;-61
2020/12/07 00:16:08;;;;;;;10.90;6.80;;;;;;;7.87;72.46;99463.03;5135308;28;20023;-61
2020/12/07 00:18:35;;;;;;;9.95;7.20;;;;;;;7.90;72.18;99450.22;5135179;28;20321;-61
2020/12/07 00:21:01;;;;;;;11.07;7.28;;;;;;;7.87;72.55;99448.25;5135051;28;20023;-61
2020/12/07 00:23:26;;;;;;;9.90;6.75;;;;;;;7.88;72.47;99452.63;5136526;27;20045;-61
2020/12/07 00:25:52;;;;;;;12.48;7.50;;;;;;;7.89;72.72;99482.22;5138992;27;20428;-61
2020/12/07 00:28:17;;;;;;;10.15;6.45;;;;;;;7.89;72.57;99459.81;5138829;27;20449;-61
2020/12/07 00:30:42;;;;;;;9.60;6.93;;;;;;;7.93;72.52;99464.19;5138887;27;20019;-58
2020/12/07 00:33:08;;;;;;;9.82;6.65;;;;;;;7.93;72.21;99469.00;5138880;27;20023;-58
2020/12/07 00:35:33;;;;;;;10.63;6.38;;;;;;;7.87;72.77;99474.22;5138272;27;20287;-56
2020/12/07 00:37:58;;;;;;;10.02;6.20;;;;;;;7.85;72.41;99470.25;5138855;27;20083;-62
2020/12/07 00:40:24;;;;;;;10.25;6.35;;;;;;;7.82;73.07;99459.88;5138392;27;20097;-61
2020/12/07 00:42:50;;;;;;;10.90;7.20;;;;;;;7.89;72.75;99465.44;5138640;27;20426;-61
2020/12/07 00:45:15;;;;;;;10.90;6.18;;;;;;;7.86;72.87;99466.25;5138665;27;20034;-61
2020/12/07 00:47:40;;;;;;;10.15;6.97;;;;;;;7.84;72.76;99457.47;5138522;27;20015;-61
2020/12/07 00:50:06;;;;;;;11.02;7.05;;;;;;;7.81;72.48;99447.09;5138340;27;20035;-61
2020/12/07 00:52:31;;;;;;;10.18;6.90;;;;;;;7.79;73.00;99455.09;5138229;27;20026;-61
2020/12/07 00:54:56;;;;;;;10.55;6.93;;;;;;;7.84;72.24;99468.66;5138409;27;20026;-62
2020/12/07 00:57:22;;;;;;;10.45;7.00;;;;;;;7.80;72.53;99465.06;5138321;27;20027;-61
2020/12/07 00:59:47;;;;;;;10.05;6.20;;;;;;;7.73;72.59;99477.91;5138179;27;20033;-61
2020/12/07 01:02:12;;;;;;;10.32;6.53;;;;;;;7.72;72.97;99472.72;5138432;27;20080;-61
2020/12/07 01:04:38;;;;;;;14.98;7.30;;;;;;;7.77;72.38;99480.69;5138205;27;20050;-60
2020/12/07 01:07:03;;;;;;;9.50;6.72;;;;;;;7.72;73.25;99478.31;5138336;27;20034;-61
2020/12/07 01:09:29;;;;;;;9.13;6.32;;;;;;;7.75;72.34;99475.50;5137648;27;20037;-61
2020/12/07 01:11:57;;;;;;;10.27;6.88;;;;;;;7.75;72.74;99463.50;5137941;27;20039;-61
2020/12/07 01:14:23;;;;;;;9.32;6.60;;;;;;;7.74;72.66;99462.69;5137941;27;20027;-61
2020/12/07 01:16:50;;;;;;;11.05;6.70;;;;;;;7.75;72.52;99472.69;5138029;27;20034;-61
2020/12/07 01:19:15;;;;;;;11.85;6.35;;;;;;;7.77;72.43;99463.09;5137897;27;20055;-61
2020/12/07 01:21:41;;;;;;;10.32;6.47;;;;;;;7.74;72.98;99468.31;5138019;27;20110;-61
2020/12/07 01:24:08;;;;;;;14.00;6.93;;;;;;;7.76;72.55;99462.28;5137599;27;20030;-61
2020/12/07 01:26:34;;;;;;;9.75;6.35;;;;;;;7.83;72.76;99458.66;5137833;27;20414;-60
2020/12/07 01:29:01;;;;;;;9.48;6.18;;;;;;;7.82;73.00;99443.88;5137818;27;20314;-61
2020/12/07 01:31:26;;;;;;;10.23;6.22;;;;;;;7.79;72.49;99450.28;5137595;27;20027;-60
2020/12/07 01:33:52;;;;;;;9.00;6.05;;;;;;;7.74;73.05;99445.13;5137026;27;20015;-61
2020/12/07 01:36:18;;;;;;;8.82;6.18;;;;;;;7.81;72.90;99449.88;5137822;27;20027;-61
2020/12/07 01:38:43;;;;;;;8.95;6.10;;;;;;;7.80;72.84;99437.09;5137283;27;20023;-61
2020/12/07 01:41:08;;;;;;;8.60;5.72;;;;;;;7.78;72.69;99433.91;5137224;27;20031;-61
2020/12/07 01:43:34;;;;;;;8.57;5.43;;;;;;;7.84;72.59;99421.88;5137495;27;20106;-61
2020/12/07 01:46:00;;;;;;;9.18;6.57;;;;;;;7.78;73.14;99408.75;5137446;27;20038;-61
2020/12/07 01:48:26;;;;;;;8.63;6.43;;;;;;;7.75;72.50;99419.53;5137185;27;20099;-62
2020/12/07 01:50:53;;;;;;;8.70;5.88;;;;;;;7.77;73.02;99426.72;5137351;27;20021;-61
2020/12/07 01:53:20;;;;;;;7.75;5.95;;;;;;;7.72;72.79;99422.38;5137462;27;20042;-61
2020/12/07 01:55:45;;;;;;;11.18;6.10;;;;;;;7.73;73.14;99415.56;5136728;27;20026;-61
2020/12/07 01:58:11;;;;;;;9.25;5.78;;;;;;;7.76;72.36;99409.16;5137212;27;20023;-61
2020/12/07 02:00:37;;;;;;;15.75;5.65;;;;;;;7.77;72.41;99423.94;5136929;27;20043;-61
2020/12/07 02:03:02;;;;;;;8.90;6.18;;;;;;;7.75;72.90;99413.16;5136869;27;20019;-61
2020/12/07 02:05:28;;;;;;;13.70;5.70;;;;;;;7.73;73.05;99419.16;5136901;27;20011;-61
2020/12/07 02:08:16;;;;;;;8.52;5.60;;;;;;;7.74;72.76;99409.56;5137043;27;20023;-63
2020/12/07 02:10:42;;;;;;;11.32;6.63;;;;;;;7.75;72.60;99422.34;5135276;27;20150;-61
2020/12/07 02:13:08;;;;;;;9.98;5.35;;;;;;;7.79;72.99;99407.53;5136736;27;20058;-61
2020/12/07 02:15:33;;;;;;;8.10;5.30;;;;;;;7.77;72.53;99424.72;5136991;27;20047;-61
2020/12/07 02:18:00;;;;;;;11.25;6.72;;;;;;;7.76;73.08;99423.13;5136607;27;20060;-61
2020/12/07 02:20:25;;;;;;;6.20;4.97;;;;;;;7.77;72.51;99419.13;5136671;27;20031;-61
2020/12/07 02:22:51;;;;;;;6.25;4.80;;;;;;;7.78;73.13;99425.53;5136733;27;20105;-60
2020/12/07 02:25:19;;;;;;;10.65;5.43;;;;;;;7.80;72.24;99428.72;5136357;27;20019;-61
2020/12/07 02:27:47;;;;;;;13.30;5.65;;;;;;;7.80;72.91;99437.09;5136668;27;20022;-61
2020/12/07 02:30:13;;;;;;;8.48;5.78;;;;;;;7.79;72.44;99449.50;5136596;27;20019;-61
2020/12/07 02:32:38;;;;;;;8.35;6.18;;;;;;;7.80;72.93;99437.91;5136179;27;20063;-61
2020/12/07 02:35:03;;;;;;;10.27;5.57;;;;;;;7.81;72.58;99444.28;5136578;27;20344;-62
2020/12/07 02:37:29;;;;;;;7.65;5.25;;;;;;;7.81;72.56;99458.28;5136200;27;20149;-63
2020/12/07 02:39:54;;;;;;;7.60;5.05;;;;;;;7.86;71.87;99449.47;5136178;27;20034;-62
2020/12/07 02:42:20;;;;;;;8.75;5.25;;;;;;;7.86;72.40;99455.06;5136297;27;20085;-61
2020/12/07 02:44:45;;;;;;;11.88;5.22;;;;;;;7.88;72.47;99458.25;5136615;27;20035;-61
2020/12/07 02:47:10;;;;;;;7.43;4.97;;;;;;;7.88;72.81;99466.63;5135339;27;20452;-61
2020/12/07 02:49:36;;;;;;;10.07;5.28;;;;;;;7.83;72.56;99456.66;5136259;27;20408;-61
2020/12/07 02:52:01;;;;;;;8.48;5.28;;;;;;;7.87;72.34;99456.66;5136287;27;20019;-66
2020/12/07 02:54:26;;;;;;;11.32;5.35;;;;;;;7.86;71.96;99461.44;5135755;27;20034;-62
2020/12/07 02:56:52;;;;;;;7.60;5.85;;;;;;;7.86;72.02;99460.66;5117832;27;20052;-62
2020/12/07 02:59:17;;;;;;;8.27;5.15;;;;;;;7.85;72.42;99457.06;5136167;27;20019;-62
2020/12/07 03:01:42;;;;;;;7.07;5.35;;;;;;;7.87;71.92;99462.25;5135813;27;20106;-63
2020/12/07 03:04:08;;;;;;;8.63;4.80;;;;;;;7.86;71.93;99460.66;5135778;27;20098;-66
2020/12/07 03:06:33;;;;;;;9.63;5.38;;;;;;;7.89;72.13;99469.03;5135978;27;20186;-59
2020/12/07 03:08:58;;;;;;;9.18;5.35;;;;;;;7.93;72.00;99463.41;5135878;27;20419;-62
2020/12/07 03:11:24;;;;;;;7.03;4.78;;;;;;;7.87;72.20;99457.44;5135450;27;20043;-62
2020/12/07 03:13:50;;;;;;;8.93;5.25;;;;;;;7.89;72.37;99454.22;5135955;27;20141;-62
2020/12/07 03:16:15;;;;;;;6.45;4.90;;;;;;;7.90;71.63;99447.44;5135828;27;20027;-62
2020/12/07 03:18:40;;;;;;;11.43;5.25;;;;;;;7.87;72.45;99437.06;5135684;28;20028;-62
2020/12/07 03:21:06;;;;;;;6.90;4.53;;;;;;;7.89;72.36;99437.44;5135923;28;20076;-61
2020/12/07 03:23:31;;;;;;;9.05;5.18;;;;;;;7.91;72.42;99432.25;5135557;28;20031;-62
2020/12/07 03:25:57;;;;;;;7.60;5.18;;;;;;;7.95;71.71;99430.25;5135929;28;20019;-61
2020/12/07 03:28:22;;;;;;;13.23;5.00;;;;;;;7.92;72.16;99429.03;5135637;28;20076;-61
2020/12/07 03:30:48;;;;;;;6.75;5.22;;;;;;;7.93;71.98;99427.03;5135423;28;20061;-61
2020/12/07 03:33:13;;;;;;;7.85;5.70;;;;;;;7.93;71.58;99422.22;5136109;28;20019;-61
2020/12/07 03:35:39;;;;;;;9.35;5.75;;;;;;;7.90;71.73;99417.44;5135406;28;20019;-61
2020/12/07 03:38:04;;;;;;;8.20;5.40;;;;;;;7.89;71.60;99421.44;5133873;28;20119;-61
2020/12/07 03:40:33;;;;;;;9.38;6.82;;;;;;;7.83;72.37;99422.28;5135187;28;20313;-61
2020/12/07 03:42:58;;;;;;;9.52;6.65;;;;;;;7.83;72.22;99420.28;5135294;28;20102;-61
2020/12/07 03:45:23;;;;;;;14.18;6.28;;;;;;;7.88;72.25;99430.25;5135702;28;20110;-66
2020/12/07 03:47:49;;;;;;;12.85;6.85;;;;;;;7.88;72.20;99427.47;5135472;28;20109;-61
2020/12/07 03:50:14;;;;;;;10.10;5.90;;;;;;;7.91;71.74;99409.84;5135679;27;20019;-61
2020/12/07 03:52:39;;;;;;;10.23;5.68;;;;;;;7.86;71.70;99432.66;5135755;28;20019;-61
2020/12/07 03:55:05;;;;;;;11.88;5.90;;;;;;;7.86;71.83;99413.09;5135035;28;20055;-60
2020/12/07 03:57:30;;;;;;;9.63;5.90;;;;;;;7.82;71.67;99415.91;5136446;27;20405;-61
2020/12/07 03:59:56;;;;;;;12.18;6.53;;;;;;;7.90;71.30;99408.25;5121112;27;20019;-60
2020/12/07 04:02:21;;;;;;;7.95;4.60;;;;;;;7.84;71.74;99416.28;5139613;27;20022;-61
2020/12/07 04:04:53;;;;;;;12.55;6.00;;;;;;;7.82;71.74;99412.31;5139384;27;20007;-61
2020/12/07 04:07:19;;;;;;;8.68;5.18;;;;;;;7.83;71.44;99411.09;5139558;27;20029;-61
2020/12/07 04:09:44;;;;;;;14.32;4.50;;;;;;;7.84;71.40;99412.69;5139157;27;20031;-61
2020/12/07 04:12:09;;;;;;;6.90;4.75;;;;;;;7.80;71.59;99417.53;5138733;27;20039;-60
2020/12/07 04:14:35;;;;;;;6.22;4.68;;;;;;;7.80;71.86;99411.94;5138978;27;20424;-61
2020/12/07 04:17:00;;;;;;;8.88;4.47;;;;;;;7.85;71.11;99428.28;5120987;27;20029;-60
2020/12/07 04:19:26;;;;;;;6.43;4.38;;;;;;;7.85;71.34;99428.28;5139070;27;20027;-61
2020/12/07 04:21:51;;;;;;;8.70;4.25;;;;;;;7.82;71.71;99418.69;5138938;27;20015;-61
2020/12/07 04:24:16;;;;;;;9.32;4.07;;;;;;;7.83;71.15;99416.69;5139063;27;20015;-61
2020/12/07 04:26:42;;;;;;;7.55;4.25;;;;;;;7.86;71.31;99421.47;5138798;27;20403;-61
2020/12/07 04:29:07;;;;;;;5.13;4.00;;;;;;;7.89;70.99;99421.44;5138916;27;20050;-60
2020/12/07 04:31:32;;;;;;;9.05;4.68;;;;;;;7.87;71.38;99423.88;5120464;27;20023;-61
2020/12/07 04:33:58;;;;;;;6.88;4.50;;;;;;;7.84;71.27;99427.47;5138796;27;20407;-61
2020/12/07 04:36:23;;;;;;;8.48;3.95;;;;;;;7.81;70.92;99436.69;5138878;27;20106;-61
2020/12/07 04:38:48;;;;;;;8.45;4.13;;;;;;;7.84;71.07;99432.28;5138356;27;20106;-61
2020/12/07 04:41:14;;;;;;;6.20;4.15;;;;;;;7.85;71.04;99442.28;5138373;27;20011;-61
2020/12/07 04:43:40;;;;;;;5.82;4.40;;;;;;;7.85;71.53;99442.28;5138734;27;20095;-61
2020/12/07 04:46:05;;;;;;;10.95;5.18;;;;;;;7.87;70.82;99451.06;5138249;27;20418;-61
2020/12/07 04:48:34;;;;;;;4.75;4.03;;;;;;;7.87;70.87;99453.84;5138450;27;20459;-61
2020/12/07 04:51:00;;;;;;;5.28;3.92;;;;;;;7.89;70.53;99457.03;5138497;27;20063;-61
2020/12/07 04:53:26;;;;;;;4.97;4.15;;;;;;;7.87;70.60;99468.63;5138319;27;20057;-61
2020/12/07 04:55:51;;;;;;;6.65;4.05;;;;;;;7.84;71.58;99475.03;5138049;27;20106;-61
2020/12/07 04:58:17;;;;;;;7.60;4.60;;;;;;;7.86;70.83;99475.44;5137513;27;20020;-61
2020/12/07 05:00:42;;;;;;;6.88;4.55;;;;;;;7.86;71.42;99485.81;5138035;27;20434;-61
2020/12/07 05:03:08;;;;;;;5.05;3.92;;;;;;;7.88;70.85;99491.81;5138291;27;20030;-61
2020/12/07 05:05:33;;;;;;;6.90;4.28;;;;;;;7.83;71.21;99493.03;5136712;27;20027;-62
2020/12/07 05:07:59;;;;;;;5.97;4.40;;;;;;;7.86;71.19;99494.22;5138261;27;20019;-61
2020/12/07 05:10:37;;;;;;;13.65;4.00;;;;;;;7.85;71.23;99492.63;5136979;27;20061;-62
2020/12/07 05:13:21;;;;;;;6.68;4.43;;;;;;;7.82;71.49;99497.03;5119762;27;20023;-63
2020/12/07 05:15:47;;;;;;;7.40;4.65;;;;;;;7.90;71.57;99500.59;5136988;27;20333;-64
2020/12/07 05:18:12;;;;;;;6.38;4.28;;;;;;;7.91;71.45;99514.19;5138127;27;20034;-61
2020/12/07 05:20:38;;;;;;;7.10;5.10;;;;;;;7.90;70.98;99512.59;5137158;27;20297;-59
2020/12/07 05:23:03;;;;;;;7.13;5.60;;;;;;;7.87;71.80;99507.00;5138025;27;20057;-63
2020/12/07 05:25:29;;;;;;;8.02;4.57;;;;;;;7.84;71.97;99508.63;5137643;27;20023;-61
2020/12/07 05:27:58;;;;;;;8.13;4.93;;;;;;;7.90;71.59;99517.38;5137921;27;20027;-61
2020/12/07 05:30:27;;;;;;;10.30;5.55;;;;;;;7.89;71.59;99510.19;5137280;27;20477;-61
2020/12/07 05:32:52;;;;;;;10.32;6.82;;;;;;;7.92;71.60;99509.38;5138019;27;20019;-61
2020/12/07 05:38:04;;;;;;;8.88;5.32;;;;;;;7.93;71.86;99524.97;5137934;27;20076;-62
2020/12/07 05:40:30;;;;;;;10.60;5.68;;;;;;;7.96;72.01;99512.97;5136950;27;20027;-61
2020/12/07 05:42:58;;;;;;;8.70;5.68;;;;;;;7.92;71.39;99526.97;5137296;27;20031;-61
2020/12/07 05:45:24;;;;;;;8.90;6.13;;;;;;;7.91;71.74;99519.78;5119279;27;20035;-61
2020/12/07 05:47:52;;;;;;;7.47;5.57;;;;;;;7.94;71.61;99518.16;5137112;27;20037;-61
2020/12/07 05:50:18;;;;;;;11.25;6.07;;;;;;;7.92;72.15;99521.38;5137299;27;20019;-61
2020/12/07 05:52:50;;;;;;;11.77;7.95;;;;;;;8.01;71.68;99540.53;5137034;27;20450;-61
2020/12/07 05:55:17;;;;;;;11.80;7.50;;;;;;;8.06;71.22;99531.72;5134823;27;20114;-61
2020/12/07 05:58:03;;;;;;;13.00;7.63;;;;;;;8.02;71.32;99533.72;5136904;27;20023;-61
2020/12/07 06:00:31;;;;;;;10.55;6.78;;;;;;;7.99;71.56;99543.75;5136401;27;20076;-61
2020/12/07 06:02:58;;;;;;;13.20;7.13;;;;;;;7.99;72.00;99565.34;5137200;27;20023;-63
2020/12/07 06:05:24;;;;;;;9.77;7.03;;;;;;;8.04;71.48;99546.13;5137206;27;20023;-62
2020/12/07 06:08:07;;;;;;;12.65;7.80;;;;;;;8.01;71.03;99541.34;5136873;27;20037;-61
2020/12/07 06:10:40;;;;;;;15.52;8.50;;;;;;;7.97;71.29;99545.34;5135945;27;20066;-61
2020/12/07 06:13:14;;;;;;;12.15;7.40;;;;;;;7.99;71.34;99537.34;5136871;27;20019;-62
2020/12/07 06:15:47;;;;;;;14.50;6.57;;;;;;;8.04;70.81;99562.91;5134667;27;20065;-62
2020/12/07 06:18:34;;;;;;;16.13;9.35;;;;;;;8.03;70.96;99549.31;5136889;27;20039;-61
2020/12/07 06:21:10;;;;;;;11.18;7.18;;;;;;;7.98;71.20;99555.34;5135652;27;20023;-65
2020/12/07 06:23:43;;;;;;;11.75;7.65;;;;;;;7.97;71.69;99556.56;5135995;27;20023;-68
2020/12/07 06:26:12;;;;;;;15.15;8.98;;;;;;;8.00;70.87;99561.34;5136662;27;20017;-57
2020/12/07 06:28:40;;;;;;;11.88;8.25;;;;;;;7.96;71.79;99555.75;5136464;27;20019;-68
2020/12/07 06:31:17;;;;;;;10.10;8.10;;;;;;;7.96;71.14;99577.34;5136902;27;20011;-67
2020/12/07 06:33:47;;;;;;;11.15;7.53;;;;;;;7.99;70.94;99571.72;5136210;27;20030;-66
2020/12/07 06:36:26;;;;;;;10.65;7.05;;;;;;;7.98;71.27;99570.13;5136427;27;20149;-68
2020/12/07 06:38:54;;;;;;;9.55;6.72;;;;;;;7.98;71.54;99570.13;5117542;27;20023;-68
2020/12/07 06:41:33;;;;;;;11.77;8.32;;;;;;;7.96;71.13;99586.53;5118237;27;20019;-67
2020/12/07 06:44:00;;;;;;;12.57;7.72;;;;;;;8.01;70.75;99590.91;5136272;27;20411;-64
2020/12/07 06:46:52;;;;;;;12.05;7.18;;;;;;;8.05;70.48;99580.50;5136200;27;20097;-68
2020/12/07 06:49:18;;;;;;;10.75;7.10;;;;;;;7.99;71.07;99582.13;5136101;27;20015;-65
2020/12/07 06:51:55;;;;;;;20.63;10.32;;;;;;;7.94;70.96;99611.31;5135957;27;20023;-65
2020/12/07 06:57:25;;;;;;;11.68;7.93;;;;;;;7.95;70.61;99589.72;5134825;27;20436;-63
2020/12/07 06:59:58;;;;;;;12.45;7.20;;;;;;;7.97;70.74;99587.31;5135715;27;20077;-67
2020/12/07 07:02:23;;;;;;;12.70;7.22;;;;;;;7.99;71.19;99584.91;5136481;27;20042;-66
2020/12/07 07:04:57;;;;;;;11.07;7.55;;;;;;;7.97;70.93;99596.53;5135980;27;20046;-63
2020/12/07 07:07:24;;;;;;;9.45;7.20;;;;;;;7.98;70.96;99600.13;5133811;27;20040;-66
2020/12/07 07:09:50;;;;;;;11.38;6.90;;;;;;;8.00;71.01;99598.50;5135919;27;20064;-65
2020/12/07 07:12:17;;;;;;;12.98;7.35;;;;;;;8.03;70.37;99592.09;5133231;27;20053;-60
2020/12/07 07:14:42;;;;;;;13.57;7.75;;;;;;;8.07;70.81;99594.88;5117421;27;20062;-60
2020/12/07 07:17:09;;;;;;;10.43;6.97;;;;;;;8.12;70.35;99613.25;5135948;27;20383;-64
2020/12/07 07:19:35;;;;;;;9.23;6.60;;;;;;;8.16;70.56;99598.03;5135790;27;20015;-69
2020/12/07 07:22:01;;;;;;;9.80;6.65;;;;;;;8.21;70.12;99602.41;5117222;28;20027;-65
2020/12/07 07:24:33;;;;;;;12.55;6.72;;;;;;;8.25;70.32;99595.63;5117639;28;20404;-66
2020/12/07 07:27:04;;;;;;;10.35;6.93;;;;;;;8.32;69.70;99612.38;5135747;28;20050;-67
2020/12/07 07:29:29;;;;;;;8.43;6.32;;;;;;;8.41;68.75;99613.97;5135633;28;20027;-68
2020/12/07 07:31:57;;;;;;;10.07;6.25;;;;;;;8.40;69.47;99596.38;5135573;27;20322;-67
2020/12/07 07:34:23;;;;;;;10.43;6.95;;;;;;;8.43;69.60;99608.75;5104326;27;20027;-68
2020/12/07 07:36:49;;;;;;;9.13;6.75;;;;;;;8.49;69.33;99612.72;5139679;27;20019;-68
2020/12/07 07:39:14;;;;;;;8.52;6.07;;;;;;;8.50;69.29;99612.34;5139892;27;20076;-70
2020/12/07 07:41:41;;;;;;;10.80;6.45;;;;;;;8.51;69.09;99616.75;5139065;27;20015;-71
2020/12/07 07:44:07;;;;;;;9.80;6.50;;;;;;;8.54;68.55;99617.94;5139648;27;20044;-68
2020/12/07 07:46:34;;;;;;;8.63;6.05;;;;;;;8.59;68.32;99618.28;5139626;27;20023;-67
2020/12/07 08:15:42;;;;;;;11.00;6.60;;;;;;;8.47;68.77;99621.53;5138684;27;20045;-71
2020/12/07 08:18:08;;;;;;;11.27;5.82;;;;;;;8.47;68.74;99645.94;5139491;27;20019;-70
2020/12/07 08:20:39;;;;;;;12.55;6.38;;;;;;;8.45;68.82;99631.56;5138504;27;20027;-60
2020/12/07 08:23:06;;;;;;;16.45;6.65;;;;;;;8.48;68.39;99633.53;5138899;27;20106;-57
2020/12/07 08:25:49;;;;;;;12.88;6.40;;;;;;;8.46;69.08;99638.75;5138803;27;20064;-68
2020/12/07 08:28:28;;;;;;;8.68;5.68;;;;;;;8.39;68.43;99638.78;5138211;27;20030;-59
2020/12/07 08:31:13;;;;;;;14.00;6.90;;;;;;;8.36;69.60;99644.00;5119871;27;20146;-65
2020/12/07 08:34:01;;;;;;;13.15;7.28;;;;;;;8.39;68.70;99641.59;5119645;27;20071;-66
2020/12/07 08:36:29;;;;;;;9.63;6.20;;;;;;;8.34;69.21;99640.81;5119103;27;20023;-68
2020/12/07 08:38:55;;;;;;;9.30;5.97;;;;;;;8.32;68.87;99662.78;5137763;27;20015;-66
2020/12/07 08:41:28;;;;;;;10.75;6.60;;;;;;;8.29;69.52;99655.19;5138222;27;20020;-67
2020/12/07 08:43:56;;;;;;;9.73;6.10;;;;;;;8.29;68.48;99658.00;5136948;27;20041;-69
2020/12/07 08:46:24;;;;;;;11.80;6.30;;;;;;;8.24;69.02;99655.63;5138044;27;20020;-66
2020/12/07 08:48:51;;;;;;;9.18;6.85;;;;;;;8.19;69.37;99670.00;5119622;27;20349;-67
2020/12/07 08:51:20;;;;;;;10.00;5.35;;;;;;;8.20;68.76;99671.59;5136366;27;20062;-65
2020/12/07 08:53:45;;;;;;;8.50;6.10;;;;;;;8.18;68.53;99670.41;5137651;27;20019;-67
2020/12/07 08:56:11;;;;;;;12.20;6.88;;;;;;;8.16;69.31;99665.22;5119702;27;20413;-61
2020/12/07 08:58:37;;;;;;;12.65;7.93;;;;;;;8.17;69.12;99663.22;5135272;27;20027;-64
2020/12/07 09:01:05;;;;;;;13.55;6.93;;;;;;;8.14;69.67;99661.22;5137888;27;20023;-66
2020/12/07 09:03:31;;;;;;;14.02;7.82;;;;;;;8.12;69.06;99664.44;5137476;27;20417;-69
2020/12/07 09:05:56;;;;;;;19.25;7.38;;;;;;;8.16;68.89;99678.41;5135858;27;20019;-65
2020/12/07 09:08:22;;;;;;;20.15;5.95;;;;;;;8.17;69.15;99666.00;5119267;27;20023;-64
2020/12/07 09:10:47;;;;;;;12.50;7.93;;;;;;;8.16;69.41;99665.22;5119375;27;20464;-65
2020/12/07 09:13:12;;;;;;;13.48;8.00;;;;;;;8.12;68.94;99670.03;5137695;27;20019;-64
2020/12/07 09:15:38;;;;;;;16.25;10.50;;;;;;;8.12;69.80;99663.63;5118121;27;20046;-66
2020/12/07 09:18:04;;;;;;;6.80;5.32;;;;;;;8.12;70.21;99670.03;5135333;27;20023;-68
2020/12/07 09:20:29;;;;;;;8.45;5.40;;;;;;;8.14;69.75;99662.03;5136974;27;20459;-70
2020/12/07 09:22:55;;;;;;;10.02;5.95;;;;;;;8.13;70.36;99654.84;5136897;27;20023;-70
2020/12/07 09:25:21;;;;;;;9.73;6.30;;;;;;;8.10;71.12;99666.03;5134754;27;20023;-64
2020/12/07 09:27:46;;;;;;;14.30;6.60;;;;;;;8.07;71.26;99673.25;5135703;27;20027;-66
2020/12/07 09:30:12;;;;;;;11.30;5.70;;;;;;;8.03;71.13;99669.66;5137056;27;20114;-62
2020/12/07 09:32:37;;;;;;;12.70;5.40;;;;;;;8.00;71.58;99668.47;5116172;27;20019;-63
2020/12/07 09:35:04;;;;;;;8.50;5.53;;;;;;;8.06;71.50;99666.84;5137762;27;20015;-65
2020/12/07 09:37:29;;;;;;;11.77;6.25;;;;;;;8.01;72.52;99681.25;5119249;27;20442;-70
2020/12/07 09:39:55;;;;;;;7.60;5.07;;;;;;;7.99;72.16;99678.06;5118437;27;20019;-66
2020/12/07 09:42:21;;;;;;;11.52;5.00;;;;;;;7.99;72.35;99682.88;5137414;27;20027;-65
2020/12/07 09:44:46;;;;;;;5.38;4.25;;;;;;;7.96;72.53;99686.47;5137271;27;20046;-68
2020/12/07 09:47:11;;;;;;;10.45;4.43;;;;;;;7.91;73.40;99678.47;5136750;27;20123;-66
2020/12/07 09:49:37;;;;;;;7.05;4.40;;;;;;;7.91;73.33;99664.47;5116483;27;20068;-66
2020/12/07 09:52:02;;;;;;;12.57;5.40;;;;;;;7.84;73.83;99667.28;5137161;27;20023;-64
2020/12/07 09:54:28;;;;;;;13.40;5.43;;;;;;;7.87;74.17;99697.25;5135782;27;20023;-65
2020/12/07 09:56:53;;;;;;;6.82;4.38;;;;;;;7.82;73.27;99664.09;5118760;27;20023;-64
2020/12/07 09:59:18;;;;;;;8.27;5.40;;;;;;;7.75;74.44;99664.91;5137104;27;20015;-61
2020/12/07 10:01:44;;;;;;;12.25;6.70;;;;;;;7.75;75.32;99662.09;5118241;27;20030;-63
2020/12/07 10:04:09;;;;;;;8.20;5.55;;;;;;;7.77;75.14;99664.50;5136583;27;20026;-62
2020/12/07 10:06:34;;;;;;;10.95;4.57;;;;;;;7.80;74.45;99672.09;5136328;27;20059;-64
2020/12/07 10:09:00;;;;;;;9.50;5.05;;;;;;;7.78;74.81;99661.31;5136948;27;20383;-64
2020/12/07 10:11:25;;;;;;;11.02;6.20;;;;;;;7.80;75.16;99658.91;5136103;27;20079;-63
2020/12/07 10:13:51;;;;;;;12.13;6.10;;;;;;;7.81;75.57;99651.31;5135939;27;20106;-63
2020/12/07 10:16:16;;;;;;;8.85;5.45;;;;;;;7.80;75.32;99674.88;5136071;27;20075;-68
2020/12/07 10:18:42;;;;;;;11.50;5.32;;;;;;;7.75;76.05;99667.69;5136144;27;20023;-69
2020/12/07 10:21:07;;;;;;;8.85;4.97;;;;;;;7.77;75.16;99661.72;5136222;27;20030;-72
2020/12/07 10:23:33;;;;;;;9.00;5.30;;;;;;;7.78;75.54;99652.13;5118416;27;20326;-67
2020/12/07 10:25:58;;;;;;;9.52;4.75;;;;;;;7.73;76.62;99662.50;5136173;27;20018;-70
2020/12/07 10:28:23;;;;;;;7.60;3.80;;;;;;;7.76;76.08;99660.91;5135993;27;20287;-66
2020/12/07 10:30:49;;;;;;;9.30;4.75;;;;;;;7.71;76.12;99650.94;5135843;27;20026;-69
2020/12/07 10:33:14;;;;;;;7.82;5.20;;;;;;;7.75;75.94;99654.50;5136017;27;20341;-66
2020/12/07 10:35:39;;;;;;;16.60;8.57;;;;;;;7.72;77.19;99638.53;5135289;27;20152;-65
2020/12/07 10:38:05;;;;;;;23.05;11.57;;;;;;;7.71;77.96;99645.34;5135962;27;20057;-63
2020/12/07 10:40:30;;;;;;;33.60;12.88;;;;;;;7.70;77.22;99643.75;5135709;27;20330;-69
2020/12/07 10:42:56;;;;;;;55.08;23.08;;;;;;;7.75;77.65;99643.31;5136109;27;20100;-58
2020/12/07 10:45:22;;;;;;;22.08;11.75;;;;;;;7.78;77.59;99649.31;5136049;27;20023;-61
2020/12/07 10:47:48;;;;;;;8.23;5.15;;;;;;;7.79;77.14;99642.53;5136215;27;20022;-69
2020/12/07 10:50:14;;;;;;;8.60;4.88;;;;;;;7.79;77.26;99645.31;5118139;27;20030;-71
2020/12/07 10:52:39;;;;;;;7.65;4.57;;;;;;;7.79;76.86;99645.31;5135898;27;20102;-66
2020/12/07 10:55:04;;;;;;;8.82;4.88;;;;;;;7.83;76.54;99651.69;5135678;27;20055;-66
2020/12/07 10:57:30;;;;;;;11.10;5.20;;;;;;;7.82;76.59;99645.31;5135179;27;20023;-67
2020/12/07 10:59:55;;;;;;;6.93;4.60;;;;;;;7.81;76.73;99642.91;5135560;27;20313;-67
2020/12/07 11:02:20;;;;;;;7.80;4.35;;;;;;;7.82;76.65;99639.72;5136181;27;20428;-67
2020/12/07 11:04:46;;;;;;;7.75;4.78;;;;;;;7.85;76.44;99647.28;5135916;27;20400;-67
2020/12/07 11:07:15;;;;;;;10.82;5.43;;;;;;;7.89;75.94;99650.09;5117134;27;20023;-66
2020/12/07 11:09:40;;;;;;;8.52;5.45;;;;;;;7.94;74.78;99646.88;5135781;27;20015;-67
2020/12/07 11:12:11;;;;;;;14.57;7.05;;;;;;;7.99;73.59;99654.88;5135901;27;20125;-67
2020/12/07 11:14:37;;;;;;;5.40;3.83;;;;;;;7.96;74.45;99666.88;5135487;27;20102;-67
2020/12/07 11:17:02;;;;;;;6.35;3.22;;;;;;;7.98;72.76;99647.69;5135840;27;20335;-66
2020/12/07 11:19:28;;;;;;;5.75;3.72;;;;;;;7.98;73.66;99653.28;5135962;27;20042;-67
2020/12/07 11:21:53;;;;;;;4.38;2.90;;;;;;;8.02;73.12;99665.25;5135202;28;20035;-70
2020/12/07 11:24:19;;;;;;;7.15;3.03;;;;;;;8.06;72.26;99654.84;5136024;28;20064;-68
2020/12/07 11:26:46;;;;;;;7.90;4.07;;;;;;;8.04;72.74;99655.25;5135629;28;20023;-68
2020/12/07 11:29:11;;;;;;;3.88;3.13;;;;;;;8.02;73.20;99659.66;5135680;28;20031;-66
2020/12/07 11:31:37;;;;;;;5.15;3.30;;;;;;;8.04;73.24;99666.47;5135142;28;20038;-66
2020/12/07 11:34:02;;;;;;;5.70;4.07;;;;;;;8.10;72.22;99666.03;5135349;28;20019;-62
2020/12/07 11:36:27;;;;;;;5.68;3.22;;;;;;;8.10;72.55;99677.22;5135480;28;20026;-63
2020/12/07 11:39:23;;;;;;;19.25;7.55;;;;;;;8.10;73.24;99664.03;5135452;28;20085;-68
2020/12/07 11:44:31;;;;;;;4.40;2.70;;;;;;;7.94;73.63;99674.84;5136260;28;20083;-61
2020/12/07 11:46:59;;;;;;;7.47;4.28;;;;;;;7.92;73.81;99683.66;5135353;28;20356;-67
2020/12/07 11:49:25;;;;;;;7.28;3.25;;;;;;;7.91;73.73;99687.66;5135467;28;20606;-68
2020/12/07 11:51:51;;;;;;;6.65;3.40;;;;;;;7.91;74.09;99689.66;5134264;28;20033;-69
2020/12/07 11:54:16;;;;;;;5.72;3.20;;;;;;;7.87;73.77;99680.47;5134813;28;20058;-61
2020/12/07 11:56:42;;;;;;;8.65;4.50;;;;;;;7.83;74.75;99688.06;5134535;28;20019;-65
2020/12/07 11:59:08;;;;;;;6.28;4.38;;;;;;;7.81;74.52;99679.28;5135143;28;20054;-69
2020/12/07 12:01:34;;;;;;;5.90;3.22;;;;;;;7.78;75.39;99678.09;5133212;28;20051;-72
2020/12/07 12:04:00;;;;;;;6.22;2.90;;;;;;;7.79;75.18;99690.06;5134548;28;20065;-70
2020/12/07 12:06:29;;;;;;;8.05;3.35;;;;;;;7.75;75.52;99679.69;5133737;28;20027;-66
2020/12/07 12:08:54;;;;;;;6.00;3.20;;;;;;;7.71;75.96;99686.50;5134546;28;20083;-63
2020/12/07 12:11:27;;;;;;;10.23;3.83;;;;;;;7.66;76.29;99692.47;5133618;28;20360;-68